createdAt,value
2022-10-30T00:01:10.963Z,3.20
2022-10-30T00:03:39.513Z,3.10
2022-10-30T00:06:10.034Z,2.92
2022-10-30T00:08:39.446Z,3.08
2022-10-30T00:11:11.465Z,2.95
2022-10-30T00:13:39.683Z,3.03
2022-10-30T00:16:08.791Z,2.85
2022-10-30T00:18:37.760Z,3.08
2022-10-30T00:21:07.393Z,3.20
2022-10-30T00:23:34.777Z,3.17
2022-10-30T00:26:05.163Z,3.00
2022-10-30T00:28:32.922Z,3.00
2022-10-30T00:31:02.570Z,3.20
2022-10-30T00:33:30.543Z,3.78
2022-10-30T00:35:58.352Z,3.30
2022-10-30T00:38:26.086Z,3.80
2022-10-30T00:40:53.755Z,3.10
2022-10-30T00:43:38.291Z,3.55
2022-10-30T00:46:21.716Z,3.50
2022-10-30T00:51:28.152Z,3.50
2022-10-30T00:54:00.839Z,3.50
2022-10-30T00:56:31.991Z,3.63
2022-10-30T00:59:07.638Z,3.50
2022-10-30T01:01:39.072Z,4.03
2022-10-30T01:04:07.519Z,4.40
2022-10-30T01:06:41.309Z,3.83
2022-10-30T01:09:09.097Z,3.90
2022-10-30T01:11:36.871Z,3.33
2022-10-30T01:14:07.875Z,3.97
2022-10-30T01:17:03.664Z,3.83
2022-10-30T01:19:42.830Z,4.07
2022-10-30T01:22:41.047Z,3.78
2022-10-30T01:25:39.394Z,3.45
2022-10-30T01:28:27.595Z,4.18
2022-10-30T01:31:30.921Z,4.60
2022-10-30T01:34:19.091Z,4.20
2022-10-30T01:36:55.699Z,4.20
2022-10-30T01:39:26.535Z,4.13
2022-10-30T01:41:54.301Z,4.15
2022-10-30T01:44:28.908Z,4.45
2022-10-30T01:47:22.636Z,4.25
2022-10-30T01:50:17.128Z,3.83
2022-10-30T01:53:05.782Z,4.38
2022-10-30T01:55:53.480Z,4.05
2022-10-30T01:58:27.325Z,3.83
2022-10-30T02:00:59.316Z,3.83
2022-10-30T02:03:27.723Z,4.10
2022-10-30T02:05:55.532Z,3.88
2022-10-30T02:08:23.618Z,4.07
2022-10-30T02:10:53.816Z,4.10
2022-10-30T02:13:22.263Z,3.78
2022-10-30T02:15:50.640Z,3.78
2022-10-30T02:18:18.394Z,3.97
2022-10-30T02:20:46.209Z,4.03
2022-10-30T02:23:19.147Z,3.70
2022-10-30T02:25:46.984Z,3.53
2022-10-30T02:28:14.489Z,3.40
2022-10-30T02:30:44.347Z,3.58
2022-10-30T02:33:12.344Z,3.58
2022-10-30T02:35:40.223Z,3.35
2022-10-30T02:38:08.046Z,3.20
2022-10-30T02:40:35.631Z,2.53
2022-10-30T02:43:06.173Z,2.90
2022-10-30T02:45:33.544Z,2.60
2022-10-30T02:48:01.818Z,3.00
2022-10-30T02:50:29.774Z,2.85
2022-10-30T02:53:00.118Z,2.83
2022-10-30T02:55:28.388Z,2.80
2022-10-30T02:57:56.467Z,2.22
2022-10-30T03:00:24.475Z,2.28
2022-10-30T03:02:56.439Z,2.67
2022-10-30T03:05:25.152Z,2.93
2022-10-30T03:07:55.736Z,2.55
2022-10-30T03:10:23.780Z,2.25
2022-10-30T03:12:51.539Z,2.55
2022-10-30T03:15:19.372Z,2.47
2022-10-30T03:17:46.990Z,2.13
2022-10-30T03:20:15.203Z,2.40
2022-10-30T03:22:42.900Z,2.08
2022-10-30T03:25:10.776Z,2.17
2022-10-30T03:27:38.356Z,2.22
2022-10-30T03:30:06.339Z,2.20
2022-10-30T03:32:34.008Z,2.40
2022-10-30T03:35:05.156Z,1.92
2022-10-30T03:37:32.576Z,2.60
2022-10-30T03:40:00.286Z,1.90
2022-10-30T03:42:27.978Z,2.00
2022-10-30T03:44:55.684Z,2.28
2022-10-30T03:47:23.354Z,2.28
2022-10-30T03:49:51.100Z,1.92
2022-10-30T03:52:18.892Z,2.03
2022-10-30T03:54:46.603Z,2.30
2022-10-30T03:57:14.145Z,2.15
2022-10-30T03:59:41.531Z,1.65
2022-10-30T04:02:09.665Z,1.85
2022-10-30T04:04:37.689Z,2.70
2022-10-30T04:07:05.588Z,1.80
2022-10-30T04:09:33.008Z,2.00
2022-10-30T04:12:00.796Z,1.90
2022-10-30T04:14:28.558Z,1.90
2022-10-30T04:16:56.336Z,1.67
2022-10-30T04:19:24.206Z,1.50
2022-10-30T04:21:51.847Z,2.05
2022-10-30T04:24:19.568Z,1.60
2022-10-30T04:26:47.419Z,1.60
2022-10-30T04:29:14.760Z,1.63
2022-10-30T04:31:42.638Z,1.80
2022-10-30T04:34:15.121Z,1.70
2022-10-30T04:36:42.773Z,1.60
2022-10-30T04:39:10.820Z,1.58
2022-10-30T04:41:38.579Z,1.48
2022-10-30T04:44:06.313Z,1.45
2022-10-30T04:46:34.072Z,1.17
2022-10-30T04:49:01.857Z,1.30
2022-10-30T04:51:29.563Z,1.10
2022-10-30T04:53:58.948Z,1.40
2022-10-30T04:56:26.424Z,1.38
2022-10-30T04:58:54.324Z,1.50
2022-10-30T05:01:22.572Z,1.58
2022-10-30T05:03:53.675Z,1.05
2022-10-30T05:06:26.949Z,1.00
2022-10-30T05:08:58.072Z,1.80
2022-10-30T05:11:25.868Z,0.98
2022-10-30T05:13:53.268Z,1.23
2022-10-30T05:16:21.036Z,1.00
2022-10-30T05:18:49.024Z,1.40
2022-10-30T05:21:16.796Z,1.42
2022-10-30T05:23:44.676Z,1.48
2022-10-30T05:26:15.198Z,1.08
2022-10-30T05:28:44.829Z,1.15
2022-10-30T05:31:13.532Z,1.27
2022-10-30T05:33:41.626Z,1.33
2022-10-30T05:36:11.031Z,1.20
2022-10-30T05:38:39.613Z,1.30
2022-10-30T05:41:09.272Z,1.50
2022-10-30T05:43:39.365Z,1.27
2022-10-30T05:46:08.853Z,1.13
2022-10-30T05:48:37.265Z,1.23
2022-10-30T05:51:06.896Z,1.17
2022-10-30T05:53:38.197Z,1.20
2022-10-30T05:56:06.443Z,1.13
2022-10-30T05:58:34.988Z,1.10
2022-10-30T06:01:09.568Z,1.00
2022-10-30T06:03:37.867Z,1.27
2022-10-30T06:06:07.929Z,1.35
2022-10-30T06:08:36.172Z,1.30
2022-10-30T06:11:03.514Z,1.20
2022-10-30T06:13:31.309Z,1.80
2022-10-30T06:15:59.095Z,1.30
2022-10-30T06:18:27.098Z,1.48
2022-10-30T06:20:58.006Z,0.93
2022-10-30T06:23:26.804Z,0.80
2022-10-30T06:25:54.688Z,1.05
2022-10-30T06:28:22.746Z,1.00
2022-10-30T06:30:50.567Z,0.93
2022-10-30T06:33:18.396Z,1.15
2022-10-30T06:35:46.114Z,0.90
2022-10-30T06:38:15.058Z,1.30
2022-10-30T06:40:42.700Z,0.80
2022-10-30T06:43:10.613Z,1.00
2022-10-30T06:45:38.926Z,0.95
2022-10-30T06:48:08.555Z,1.10
2022-10-30T06:50:36.376Z,1.08
2022-10-30T06:53:04.314Z,1.77
2022-10-30T06:55:35.262Z,1.33
2022-10-30T06:58:04.218Z,1.10
2022-10-30T07:00:31.929Z,1.10
2022-10-30T07:03:01.810Z,0.73
2022-10-30T07:05:31.576Z,1.00
2022-10-30T07:08:00.998Z,0.80
2022-10-30T07:10:29.245Z,0.90
2022-10-30T07:13:00.477Z,0.95
2022-10-30T07:15:28.907Z,0.93
2022-10-30T07:18:00.723Z,1.17
2022-10-30T07:20:33.282Z,0.63
2022-10-30T07:23:02.882Z,0.85
2022-10-30T07:25:31.533Z,0.90
2022-10-30T07:28:03.030Z,0.90
2022-10-30T07:30:31.672Z,0.85
2022-10-30T07:33:05.733Z,0.80
2022-10-30T07:35:37.244Z,0.82
2022-10-30T07:38:07.331Z,0.90
2022-10-30T07:40:35.716Z,1.20
2022-10-30T07:43:06.292Z,0.60
2022-10-30T07:45:35.802Z,0.60
2022-10-30T07:48:05.271Z,0.70
2022-10-30T07:50:33.519Z,0.80
2022-10-30T07:53:01.266Z,0.85
2022-10-30T07:55:29.229Z,0.70
2022-10-30T07:57:57.100Z,0.68
2022-10-30T08:00:25.215Z,0.70
2022-10-30T08:02:57.565Z,0.60
2022-10-30T08:05:29.128Z,0.80
2022-10-30T08:07:59.234Z,0.80
2022-10-30T08:10:30.123Z,0.80
2022-10-30T08:12:57.816Z,0.63
2022-10-30T08:15:25.855Z,0.70
2022-10-30T08:17:54.749Z,1.08
2022-10-30T08:20:24.578Z,0.68
2022-10-30T08:22:57.324Z,0.60
2022-10-30T08:28:01.658Z,0.80
2022-10-30T08:30:34.403Z,0.93
2022-10-30T08:33:04.735Z,0.90
2022-10-30T08:35:33.207Z,1.08
2022-10-30T08:38:03.838Z,1.13
2022-10-30T08:40:31.911Z,0.90
2022-10-30T08:43:00.528Z,0.50
2022-10-30T08:45:31.048Z,0.80
2022-10-30T08:48:03.568Z,0.82
2022-10-30T08:50:32.232Z,0.80
2022-10-30T08:53:04.015Z,0.77
2022-10-30T08:55:32.262Z,0.88
2022-10-30T08:58:00.690Z,0.80
2022-10-30T09:00:28.582Z,1.00
2022-10-30T09:02:56.733Z,1.10
2022-10-30T09:05:24.815Z,1.30
2022-10-30T09:07:58.171Z,0.90
2022-10-30T09:10:26.393Z,1.35
2022-10-30T09:12:57.096Z,1.63
2022-10-30T09:15:25.194Z,1.13
2022-10-30T09:17:59.177Z,0.90
2022-10-30T09:20:29.747Z,0.80
2022-10-30T09:22:58.387Z,1.00
2022-10-30T09:25:31.182Z,0.73
2022-10-30T09:28:00.187Z,0.90
2022-10-30T09:30:28.553Z,1.00
2022-10-30T09:32:58.847Z,1.15
2022-10-30T09:35:27.467Z,0.80
2022-10-30T09:37:57.881Z,0.70
2022-10-30T09:40:58.433Z,0.68
2022-10-30T09:43:56.188Z,0.70
2022-10-30T09:46:46.524Z,0.63
2022-10-30T09:49:36.861Z,0.80
2022-10-30T09:52:44.084Z,2.05
2022-10-30T09:55:36.892Z,1.10
2022-10-30T09:58:37.510Z,1.10
2022-10-30T10:01:21.007Z,1.30
2022-10-30T10:04:22.297Z,1.00
2022-10-30T10:07:02.608Z,1.67
2022-10-30T10:09:35.248Z,1.23
2022-10-30T10:12:08.710Z,1.55
2022-10-30T10:14:43.228Z,1.10
2022-10-30T10:17:15.470Z,1.40
2022-10-30T10:19:50.608Z,1.00
2022-10-30T10:22:36.832Z,1.23
2022-10-30T10:25:12.163Z,0.80
2022-10-30T10:28:01.594Z,1.10
2022-10-30T10:30:41.338Z,1.20
2022-10-30T10:33:31.205Z,0.80
2022-10-30T10:36:23.370Z,0.90
2022-10-30T10:39:19.587Z,0.70
2022-10-30T10:42:14.054Z,0.90
2022-10-30T10:45:09.804Z,0.70
2022-10-30T10:48:07.773Z,1.27
2022-10-30T10:50:45.725Z,0.80
2022-10-30T10:53:38.249Z,0.70
2022-10-30T10:56:09.326Z,0.75
2022-10-30T10:58:56.302Z,0.70
2022-10-30T11:01:50.322Z,0.60
2022-10-30T11:04:41.008Z,0.75
2022-10-30T11:07:27.767Z,0.88
2022-10-30T11:10:00.517Z,1.30
2022-10-30T11:12:36.855Z,0.80
2022-10-30T11:15:27.167Z,1.58
2022-10-30T11:18:03.463Z,0.80
2022-10-30T11:20:56.255Z,0.90
2022-10-30T11:23:44.141Z,0.70
2022-10-30T11:26:35.815Z,0.60
2022-10-30T11:29:17.144Z,0.90
2022-10-30T11:31:48.402Z,1.00
2022-10-30T11:34:39.518Z,1.15
2022-10-30T11:37:38.242Z,1.00
2022-10-30T11:40:23.274Z,0.85
2022-10-30T11:43:01.847Z,0.85
2022-10-30T11:45:35.297Z,0.90
2022-10-30T11:50:51.436Z,1.13
2022-10-30T11:53:26.717Z,1.00
2022-10-30T11:55:55.715Z,1.10
2022-10-30T11:58:39.826Z,0.95
2022-10-30T12:01:20.825Z,1.15
2022-10-30T12:03:54.469Z,0.90
2022-10-30T12:06:32.016Z,0.90
2022-10-30T12:09:11.621Z,0.98
2022-10-30T12:11:45.151Z,1.08
2022-10-30T12:14:21.706Z,1.33
2022-10-30T12:16:54.656Z,0.90
2022-10-30T12:19:28.098Z,1.27
2022-10-30T12:21:59.541Z,1.10
2022-10-30T12:24:37.282Z,1.08
2022-10-30T12:27:11.651Z,0.90
2022-10-30T12:30:07.260Z,1.50
2022-10-30T12:32:57.889Z,1.00
2022-10-30T12:35:59.513Z,0.98
2022-10-30T12:38:35.661Z,2.03
2022-10-30T12:41:26.862Z,0.93
2022-10-30T12:44:15.194Z,0.98
2022-10-30T12:47:04.789Z,1.00
2022-10-30T12:49:53.013Z,0.90
2022-10-30T12:52:44.464Z,0.93
2022-10-30T12:55:34.585Z,0.93
2022-10-30T12:58:22.134Z,0.80
2022-10-30T13:01:18.132Z,0.60
2022-10-30T13:03:55.544Z,0.70
2022-10-30T13:06:36.966Z,0.70
2022-10-30T13:09:33.417Z,0.60
2022-10-30T13:12:12.883Z,0.80
2022-10-30T13:15:00.644Z,1.00
2022-10-30T13:17:30.118Z,0.90
2022-10-30T13:19:58.287Z,0.73
2022-10-30T13:22:35.603Z,0.50
2022-10-30T13:25:36.908Z,0.60
2022-10-30T13:28:23.658Z,0.57
2022-10-30T13:31:10.269Z,0.93
2022-10-30T13:34:02.076Z,0.50
2022-10-30T13:36:40.197Z,0.45
2022-10-30T13:39:35.581Z,0.70
2022-10-30T13:42:21.774Z,1.08
2022-10-30T13:45:20.612Z,1.20
2022-10-30T13:48:19.569Z,0.52
2022-10-30T13:51:11.540Z,0.60
2022-10-30T13:53:43.873Z,0.60
2022-10-30T13:56:18.866Z,0.70
2022-10-30T13:59:07.174Z,0.70
2022-10-30T14:01:44.059Z,0.90
2022-10-30T14:04:28.594Z,0.70
2022-10-30T14:07:23.380Z,0.68
2022-10-30T14:09:58.697Z,0.80
2022-10-30T14:12:42.220Z,0.82
2022-10-30T14:15:28.024Z,0.90
2022-10-30T14:18:11.162Z,0.90
2022-10-30T14:23:14.629Z,0.80
2022-10-30T14:25:43.416Z,0.82
2022-10-30T14:28:26.651Z,0.80
2022-10-30T14:33:45.178Z,0.75
2022-10-30T14:36:14.839Z,1.67
2022-10-30T14:38:42.875Z,1.00
2022-10-30T14:41:16.742Z,0.82
2022-10-30T14:43:49.345Z,0.90
2022-10-30T14:46:32.500Z,0.70
2022-10-30T14:49:08.756Z,0.68
2022-10-30T14:51:52.251Z,1.25
2022-10-30T14:54:28.955Z,0.93
2022-10-30T14:56:58.215Z,0.70
2022-10-30T14:59:34.212Z,1.00
2022-10-30T15:02:21.199Z,1.50
2022-10-30T15:05:09.943Z,0.90
2022-10-30T15:07:41.129Z,0.93
2022-10-30T15:10:36.549Z,0.90
2022-10-30T15:13:20.769Z,0.80
2022-10-30T15:16:06.427Z,1.00
2022-10-30T15:18:38.111Z,0.93
2022-10-30T15:21:19.746Z,1.02
2022-10-30T15:23:49.121Z,1.48
2022-10-30T15:26:22.145Z,0.82
2022-10-30T15:28:52.721Z,0.90
2022-10-30T15:31:26.804Z,1.02
2022-10-30T15:33:56.193Z,0.85
2022-10-30T15:36:29.540Z,0.80
2022-10-30T15:39:07.625Z,0.90
2022-10-30T15:41:40.465Z,1.10
2022-10-30T15:44:09.916Z,1.02
2022-10-30T15:46:41.007Z,0.93
2022-10-30T15:49:13.232Z,0.90
2022-10-30T15:51:46.361Z,1.20
2022-10-30T15:57:26.968Z,1.10
2022-10-30T15:59:39.218Z,0.90
2022-10-30T16:02:20.787Z,1.52
2022-10-30T16:04:49.630Z,1.35
2022-10-30T16:07:20.846Z,1.38
2022-10-30T16:09:59.542Z,1.40
2022-10-30T16:12:29.388Z,1.30
2022-10-30T16:15:02.115Z,1.67
2022-10-30T16:17:32.226Z,1.25
2022-10-30T16:20:02.475Z,1.55
2022-10-30T16:22:35.987Z,1.45
2022-10-30T16:27:34.593Z,1.30
2022-10-30T16:30:06.401Z,1.40
2022-10-30T16:32:35.590Z,1.30
2022-10-30T16:35:07.120Z,1.30
2022-10-30T16:37:38.216Z,1.38
2022-10-30T16:40:17.622Z,1.20
2022-10-30T16:42:49.723Z,1.05
2022-10-30T16:45:43.548Z,1.00
2022-10-30T16:48:21.257Z,1.15
2022-10-30T16:50:51.551Z,1.00
2022-10-30T16:53:25.871Z,4.18
2022-10-30T16:55:57.037Z,1.20
2022-10-30T16:58:26.330Z,1.77
2022-10-30T17:00:55.695Z,1.10
2022-10-30T17:03:26.730Z,1.20
2022-10-30T17:05:59.429Z,1.13
2022-10-30T17:08:34.312Z,0.90
2022-10-30T17:11:04.111Z,0.82
2022-10-30T17:13:37.391Z,0.82
2022-10-30T17:16:24.969Z,0.90
2022-10-30T17:18:54.865Z,1.00
2022-10-30T17:21:40.738Z,0.80
2022-10-30T17:24:24.583Z,1.05
2022-10-30T17:26:58.311Z,1.00
2022-10-30T17:29:42.851Z,0.90
2022-10-30T17:32:20.335Z,1.42
2022-10-30T17:34:48.982Z,0.88
2022-10-30T17:37:17.672Z,0.85
2022-10-30T17:39:46.607Z,1.38
2022-10-30T17:42:15.458Z,0.88
2022-10-30T17:44:44.501Z,0.90
2022-10-30T17:47:17.226Z,0.85
2022-10-30T17:49:46.286Z,1.02
2022-10-30T17:52:16.249Z,0.85
2022-10-30T17:54:46.095Z,0.90
2022-10-30T17:57:15.844Z,1.10
2022-10-30T17:59:44.969Z,0.80
2022-10-30T18:02:15.195Z,0.88
2022-10-30T18:04:45.382Z,0.95
2022-10-30T18:07:15.895Z,0.77
2022-10-30T18:09:44.658Z,1.00
2022-10-30T18:12:16.018Z,0.90
2022-10-30T18:14:47.859Z,0.93
2022-10-30T18:17:16.965Z,1.00
2022-10-30T18:19:44.801Z,1.42
2022-10-30T18:22:15.938Z,1.33
2022-10-30T18:24:44.120Z,1.20
2022-10-30T18:27:12.178Z,0.90
2022-10-30T18:29:44.278Z,0.90
2022-10-30T18:32:13.360Z,1.02
2022-10-30T18:34:43.189Z,0.95
2022-10-30T18:37:12.469Z,0.80
2022-10-30T18:39:42.203Z,2.60
2022-10-30T18:42:11.392Z,0.80
2022-10-30T18:44:40.010Z,0.80
2022-10-30T18:47:12.326Z,0.85
2022-10-30T18:49:42.412Z,0.77
2022-10-30T18:52:11.065Z,0.60
2022-10-30T18:54:40.986Z,0.70
2022-10-30T18:57:13.713Z,0.80
2022-10-30T18:59:43.249Z,0.90
2022-10-30T19:02:21.090Z,1.38
2022-10-30T19:04:50.887Z,0.60
2022-10-30T19:07:19.988Z,0.80
2022-10-30T19:09:52.405Z,0.60
2022-10-30T19:12:21.777Z,0.70
2022-10-30T19:14:51.693Z,0.68
2022-10-30T19:17:24.739Z,0.80
2022-10-30T19:19:54.780Z,0.80
2022-10-30T19:22:26.099Z,0.70
2022-10-30T19:25:01.683Z,1.08
2022-10-30T19:27:32.238Z,3.38
2022-10-30T19:30:01.643Z,0.70
2022-10-30T19:32:31.682Z,0.70
2022-10-30T19:35:00.951Z,0.90
2022-10-30T19:37:32.350Z,0.90
2022-10-30T19:40:22.996Z,0.70
2022-10-30T19:42:52.740Z,0.93
2022-10-30T19:45:26.982Z,0.50
2022-10-30T19:47:58.519Z,0.60
2022-10-30T19:50:29.475Z,0.90
2022-10-30T19:53:00.859Z,0.80
2022-10-30T19:55:39.199Z,0.93
2022-10-30T19:58:15.372Z,4.25
2022-10-30T20:00:47.554Z,1.10
2022-10-30T20:03:24.919Z,1.23
2022-10-30T20:05:59.529Z,0.85
2022-10-30T20:08:43.265Z,1.00
2022-10-30T20:11:13.338Z,1.00
2022-10-30T20:13:44.338Z,1.08
2022-10-30T20:16:21.457Z,0.63
2022-10-30T20:19:03.782Z,0.80
2022-10-30T20:21:39.440Z,0.60
2022-10-30T20:24:12.855Z,0.80
2022-10-30T20:26:48.516Z,0.68
2022-10-30T20:29:28.383Z,0.75
2022-10-30T20:32:00.328Z,0.90
2022-10-30T20:34:33.817Z,1.10
2022-10-30T20:37:11.985Z,0.88
2022-10-30T20:39:44.469Z,0.70
2022-10-30T20:42:16.124Z,1.00
2022-10-30T20:44:50.992Z,1.10
2022-10-30T20:47:20.567Z,1.80
2022-10-30T20:49:55.024Z,1.38
2022-10-30T20:52:34.700Z,0.82
2022-10-30T20:55:06.615Z,0.70
2022-10-30T20:57:47.181Z,0.75
2022-10-30T21:00:23.517Z,7.45
2022-10-30T21:03:02.489Z,1.42
2022-10-30T21:11:03.616Z,1.02
2022-10-30T21:13:41.756Z,0.93
2022-10-30T21:16:17.251Z,1.30
2022-10-30T21:18:58.230Z,0.80
2022-10-30T21:21:31.688Z,1.13
2022-10-30T21:24:01.484Z,0.70
2022-10-30T21:26:31.725Z,0.82
2022-10-30T21:29:07.759Z,1.30
2022-10-30T21:31:56.477Z,0.70
2022-10-30T21:34:29.000Z,1.00
2022-10-30T21:37:05.332Z,0.65
2022-10-30T21:39:40.453Z,0.70
2022-10-30T21:42:13.529Z,0.95
2022-10-30T21:44:48.570Z,0.68
2022-10-30T21:47:17.929Z,0.80
2022-10-30T21:49:47.172Z,0.52
2022-10-30T21:52:18.382Z,0.60
2022-10-30T21:54:47.167Z,0.65
2022-10-30T21:57:15.616Z,0.70
2022-10-30T21:59:43.718Z,0.65
2022-10-30T22:02:16.176Z,0.60
2022-10-30T22:04:44.115Z,0.70
2022-10-30T22:07:11.794Z,0.60
2022-10-30T22:09:39.623Z,0.93
2022-10-30T22:12:07.553Z,0.60
2022-10-30T22:14:35.250Z,0.75
2022-10-30T22:17:03.127Z,0.70
2022-10-30T22:19:30.793Z,0.80
2022-10-30T22:21:58.495Z,0.80
2022-10-30T22:24:26.287Z,0.80
2022-10-30T22:26:54.022Z,0.68
2022-10-30T22:29:21.733Z,0.70
2022-10-30T22:31:50.216Z,1.33
2022-10-30T22:34:17.897Z,1.05
2022-10-30T22:36:46.978Z,1.10
2022-10-30T22:39:14.988Z,0.65
2022-10-30T22:41:43.015Z,0.70
2022-10-30T22:44:13.393Z,0.63
2022-10-30T22:46:41.410Z,0.70
2022-10-30T22:49:09.290Z,0.65
2022-10-30T22:51:37.854Z,1.15
2022-10-30T22:54:07.750Z,0.68
2022-10-30T22:56:36.260Z,0.50
2022-10-30T22:59:05.558Z,0.90
2022-10-30T23:01:37.194Z,0.60
2022-10-30T23:04:05.748Z,0.80
2022-10-30T23:06:34.181Z,0.50
2022-10-30T23:09:03.855Z,0.63
2022-10-30T23:11:31.709Z,0.70
2022-10-30T23:13:59.573Z,0.70
2022-10-30T23:16:27.893Z,0.82
2022-10-30T23:18:57.794Z,0.50
2022-10-30T23:21:27.460Z,0.73
2022-10-30T23:23:55.838Z,0.70
2022-10-30T23:26:27.566Z,0.52
2022-10-30T23:28:56.745Z,0.70
2022-10-30T23:31:30.526Z,1.10
2022-10-30T23:34:00.735Z,0.80
2022-10-30T23:36:28.746Z,0.60
2022-10-30T23:39:00.263Z,0.90
2022-10-30T23:41:30.106Z,0.60
2022-10-30T23:44:01.782Z,0.90
2022-10-30T23:46:29.979Z,0.70
2022-10-30T23:48:58.282Z,0.70
2022-10-30T23:51:26.200Z,0.70
2022-10-30T23:53:54.052Z,0.70
2022-10-30T23:56:21.946Z,0.73
2022-10-30T23:58:51.665Z,0.70
